Weather reports worldwide

Advertisment
Desenzano, Italy (16089): temperature & dewpoint: 10.07.2018 18:00:00 - 16.07.2018 18:00:00 (CEST)Desenzano, Italy (16089): wind speed: 10.07.2018 18:00:00 - 16.07.2018 18:00:00 (CEST)Desenzano, Italy (16089): wind direction: 10.07.2018 18:00:00 - 16.07.2018 18:00:00 (CEST)Desenzano, Italy (16089): reduced air pressure: 10.07.2018 18:00:00 - 16.07.2018 18:00:00 (CEST)Desenzano, Italy (16089): precipitation: 10.07.2018 18:00:00 - 16.07.2018 18:00:00 (CEST)
Date & Time tt [°C] td [°C] ff [km/h] ff [kn] dd ppp [hPa] rr [mm]
16.07.2018 18:00:00 - - - - - - -
16.07.2018 17:00:00 25,5 22,9 5 3 S 1011,0 -
16.07.2018 16:00:00 26,2 21,4 5 3 S 1011,6 -
16.07.2018 15:00:00 26,4 21,8 4 2 ENE 1011,0 -
16.07.2018 14:00:00 26,3 21,2 5 3 NNE 1010,8 0,0
16.07.2018 13:00:00 25,9 20,8 5 3 NNE 1011,4 -
16.07.2018 12:00:00 25,3 20,3 9 5 N 1012,1 -
16.07.2018 11:00:00 24,7 21,0 11 6 N 1012,6 -
16.07.2018 10:00:00 24,4 22,2 13 7 NNW 1013,1 -
16.07.2018 09:00:00 24,1 22,8 15 8 NNW 1013,4 -
16.07.2018 08:00:00 23,3 22,7 9 5 N 1013,8 0,0
16.07.2018 07:00:00 22,8 22,7 5 3 NE 1013,7 -
16.07.2018 06:00:00 21,8 21,6 2 1 S 1013,7 -
16.07.2018 05:00:00 22,3 22,2 9 5 NNE 1013,4 -
16.07.2018 04:00:00 21,8 20,7 9 5 E 1014,4 -
16.07.2018 03:00:00 24,8 22,2 31 17 N 1013,1 -
16.07.2018 02:00:00 25,9 19,7 9 5 E 1012,6 0,0
16.07.2018 01:00:00 26,3 20,3 8 4 E 1013,3 -
16.07.2018 00:00:00 26,0 22,2 28 15 N 1012,9 -
15.07.2018 23:00:00 26,6 21,5 0 0 N 1012,3 -
15.07.2018 22:00:00 27,3 21,8 2 1 N 1011,7 -
15.07.2018 21:00:00 28,5 20,5 0 0 N 1011,1 -
15.07.2018 20:00:00 29,1 20,2 4 2 S 1010,8 0,0
15.07.2018 19:00:00 28,6 20,6 8 4 S 1011,0 -
15.07.2018 18:00:00 27,8 24,6 5 3 N 1011,4 -
15.07.2018 17:00:00 27,6 23,4 11 6 NNE 1011,8 -
15.07.2018 16:00:00 27,6 24,4 9 5 NNE 1012,1 -
15.07.2018 15:00:00 27,7 24,1 8 4 NNE 1013,2 -
15.07.2018 14:00:00 27,8 22,0 5 3 N 1013,6 0,0
15.07.2018 13:00:00 27,4 21,2 8 4 N 1013,7 -
15.07.2018 12:00:00 27,1 20,1 9 5 N 1014,3 -
15.07.2018 11:00:00 26,7 21,6 13 7 NW 1014,7 -
15.07.2018 10:00:00 25,9 22,1 18 10 NW 1014,5 -
15.07.2018 09:00:00 25,8 22,8 8 4 NNW 1014,7 -
15.07.2018 08:00:00 25,4 22,6 18 10 NNW 1014,4 0,0
15.07.2018 07:00:00 24,8 22,4 18 10 WNW 1014,3 -
15.07.2018 06:00:00 24,8 22,6 16 9 N 1014,3 -
15.07.2018 05:00:00 24,8 23,5 13 7 NNW 1014,2 -
15.07.2018 04:00:00 23,8 19,5 0 0 N 1014,8 -
15.07.2018 03:00:00 24,2 19,0 0 0 N 1015,3 -
15.07.2018 02:00:00 25,0 19,3 4 2 ENE 1015,9 0,0
15.07.2018 01:00:00 25,2 18,3 2 1 SSE 1015,7 -
15.07.2018 00:00:00 26,1 18,9 4 2 SE 1015,4 -
14.07.2018 23:00:00 26,5 22,9 9 5 N 1015,4 -
14.07.2018 22:00:00 27,4 23,6 9 5 N 1014,7 -
14.07.2018 21:00:00 28,1 23,0 4 2 NW 1013,7 -
14.07.2018 20:00:00 29,0 22,0 2 1 NW 1013,5 0,0
14.07.2018 19:00:00 29,6 20,7 4 2 SW 1013,4 -
14.07.2018 18:00:00 30,1 20,6 5 3 S 1013,7 -
14.07.2018 17:00:00 31,0 21,2 4 2 NNE 1013,7 -
14.07.2018 16:00:00 30,6 21,6 5 3 SSE 1014,4 -
14.07.2018 15:00:00 30,5 21,8 5 3 ESE 1014,9 -
14.07.2018 14:00:00 28,2 23,9 4 2 NNE 1016,0 0,0
14.07.2018 13:00:00 27,3 22,2 4 2 NNE 1016,6 -
14.07.2018 12:00:00 26,8 24,2 8 4 NNW 1017,0 -
14.07.2018 11:00:00 26,0 24,0 15 8 NNW 1017,5 -
14.07.2018 10:00:00 25,8 24,0 16 9 NNW 1017,8 -
14.07.2018 09:00:00 25,6 22,8 21 11 N 1018,2 -
14.07.2018 08:00:00 25,4 23,6 22 12 NNW 1018,0 0,0
14.07.2018 07:00:00 25,4 23,8 8 4 N 1017,8 -
14.07.2018 06:00:00 25,4 24,1 5 3 NNW 1017,4 -
14.07.2018 05:00:00 25,4 24,5 11 6 NNW 1017,6 -
14.07.2018 04:00:00 25,2 22,6 0 0 N 1017,4 -
14.07.2018 03:00:00 25,8 24,0 5 3 NNE 1017,6 -
14.07.2018 02:00:00 25,5 22,3 0 0 N 1017,2 0,0
14.07.2018 01:00:00 25,5 24,2 0 0 N 1017,2 -
14.07.2018 00:00:00 25,5 23,3 0 0 N 1016,9 -
13.07.2018 23:00:00 26,0 23,4 0 0 N 1016,5 -
13.07.2018 22:00:00 26,9 23,1 4 2 NNW 1016,2 -
13.07.2018 21:00:00 27,9 20,4 2 1 SSE 1015,7 -
13.07.2018 20:00:00 28,5 20,7 2 1 SSE 1015,2 0,0
13.07.2018 19:00:00 28,9 20,0 4 2 S 1015,2 -
13.07.2018 18:00:00 29,2 20,0 4 2 SW 1015,3 -
13.07.2018 17:00:00 29,0 20,4 4 2 SSE 1015,5 -
13.07.2018 16:00:00 28,7 21,7 4 2 WNW 1015,9 -
13.07.2018 15:00:00 27,3 24,1 9 5 ESE 1016,3 -
13.07.2018 14:00:00 26,8 22,4 11 6 NNE 1016,9 0,0
13.07.2018 13:00:00 26,4 21,3 8 4 N 1017,3 -
13.07.2018 12:00:00 26,1 20,6 4 2 N 1017,6 -
13.07.2018 11:00:00 25,6 21,6 5 3 NW 1017,7 -
13.07.2018 10:00:00 25,1 21,5 8 4 NW 1017,8 -
13.07.2018 09:00:00 24,9 21,4 2 1 WNW 1017,6 -
13.07.2018 08:00:00 24,5 21,2 13 7 N 1017,3 0,0
13.07.2018 07:00:00 24,2 21,8 24 13 NNW 1017,1 -
13.07.2018 06:00:00 24,2 22,4 26 14 NNW 1016,7 -
13.07.2018 05:00:00 24,3 22,1 26 14 NNW 1016,3 -
13.07.2018 04:00:00 24,6 22,0 18 10 N 1016,1 -
13.07.2018 03:00:00 24,5 22,1 26 14 N 1016,1 -
13.07.2018 02:00:00 24,9 20,9 29 16 NNW 1015,5 0,0
13.07.2018 01:00:00 24,9 22,9 18 10 NNW 1015,7 -
13.07.2018 00:00:00 24,7 22,9 0 0 N 1015,2 -
12.07.2018 23:00:00 25,0 22,0 0 0 N 1014,9 -
12.07.2018 22:00:00 25,5 21,7 0 0 N 1014,7 -
12.07.2018 21:00:00 26,4 21,3 0 0 N 1013,8 -
12.07.2018 20:00:00 27,0 20,5 0 0 N 1013,9 0,0
12.07.2018 19:00:00 27,2 20,2 2 1 S 1013,5 -
12.07.2018 18:00:00 27,4 20,4 4 2 S 1013,7 -
12.07.2018 17:00:00 27,4 20,4 5 3 SW 1014,0 -
12.07.2018 16:00:00 27,7 20,7 5 3 E 1014,3 -
12.07.2018 15:00:00 27,8 20,6 5 3 N 1014,4 -
12.07.2018 14:00:00 27,7 20,7 5 3 SE 1014,7 0,0
12.07.2018 13:00:00 26,8 21,0 4 2 E 1014,9 -
12.07.2018 12:00:00 25,7 21,3 4 2 N 1014,9 -
12.07.2018 11:00:00 25,4 21,8 4 2 NNW 1014,8 -
12.07.2018 10:00:00 25,0 21,9 4 2 NNE 1014,7 -
12.07.2018 09:00:00 24,3 22,9 2 1 WSW 1014,6 -
12.07.2018 08:00:00 23,5 23,1 2 1 SSE 1014,5 0,0
12.07.2018 07:00:00 23,0 22,8 4 2 S 1014,2 -
12.07.2018 06:00:00 22,6 22,2 4 2 S 1014,0 -
12.07.2018 05:00:00 22,6 22,0 0 0 N 1013,8 -
12.07.2018 04:00:00 22,7 21,5 0 0 N 1013,6 -
12.07.2018 03:00:00 23,0 21,6 0 0 N 1013,7 -
12.07.2018 02:00:00 23,6 21,4 0 0 N 1013,9 0,0
12.07.2018 01:00:00 23,8 21,1 2 1 E 1013,9 -
12.07.2018 00:00:00 24,1 21,6 2 1 E 1013,6 -
11.07.2018 23:00:00 24,0 21,1 0 0 N 1013,1 -
11.07.2018 22:00:00 24,2 20,7 0 0 N 1012,6 -
11.07.2018 21:00:00 24,9 20,7 0 0 N 1011,8 -
11.07.2018 20:00:00 25,4 20,1 2 1 SE 1011,3 0,0
11.07.2018 19:00:00 25,7 19,8 4 2 SE 1011,1 -
11.07.2018 18:00:00 25,9 20,4 5 3 SSE 1011,0 -
11.07.2018 17:00:00 26,4 19,7 5 3 E 1011,2 -
11.07.2018 16:00:00 26,0 20,7 11 6 ENE 1011,3 -
11.07.2018 15:00:00 24,9 21,1 9 5 NNW 1011,8 -
11.07.2018 14:00:00 24,9 22,1 4 2 E 1012,1 0,0
11.07.2018 13:00:00 24,1 22,1 4 2 WSW 1012,0 -
11.07.2018 12:00:00 23,6 22,2 4 2 NNE 1012,1 -
11.07.2018 11:00:00 23,5 23,3 4 2 NNE 1012,0 -
11.07.2018 10:00:00 22,5 22,4 2 1 E 1012,1 -
11.07.2018 09:00:00 21,9 21,8 2 1 ESE 1011,9 -
11.07.2018 08:00:00 21,8 21,7 2 1 SSE 1011,9 0,0
11.07.2018 07:00:00 22,4 22,2 2 1 SSE 1011,7 -
11.07.2018 06:00:00 23,2 22,5 5 3 NE 1011,6 -
11.07.2018 05:00:00 22,6 21,9 5 3 N 1011,1 -
11.07.2018 04:00:00 22,6 22,5 11 6 N 1011,4 -
11.07.2018 03:00:00 23,1 23,0 4 2 NNE 1011,8 -
11.07.2018 02:00:00 23,0 22,8 16 9 N 1011,4 0,0
11.07.2018 01:00:00 24,4 22,6 34 18 N 1011,2 -
11.07.2018 00:00:00 25,8 21,8 16 9 N 1010,6 -
10.07.2018 23:00:00 26,4 19,5 5 3 E 1010,0 -
10.07.2018 22:00:00 26,9 20,7 8 4 E 1009,7 -
10.07.2018 21:00:00 27,1 22,9 0 0 N 1009,1 -
10.07.2018 20:00:00 27,6 24,0 0 0 N 1009,0 0,0
10.07.2018 19:00:00 27,4 23,8 8 4 N 1009,1 -
10.07.2018 18:00:00 27,8 22,5 8 4 N 1009,5 -

tt = temperature
td = dewpoint
ff = wind speed
dd = wind direction
ppp = reduced air pressure
rr = precipitation

Next stations